Time;durP1;ratioP1;P1;durP2;ratioP2;P2;SDS_P1;SDS_P2;PMS_P1;PMS_P2;Temp;Humidity;BMP_temperature;BMP_pressure;BME280_temperature;BME280_humidity;BME280_pressure;Samples;Min_cycle;Max_cycle;Signal;HPM_P1;HPM_P2
2021/12/07 00:00:41;;;;;;;49.72;23.30;;;;;;;0.51;100.00;97190.53;4977551;28;20050;-82
2021/12/07 00:03:07;;;;;;;53.67;23.95;;;;;;;0.58;100.00;97183.09;4978251;28;20050;-81
2021/12/07 00:05:34;;;;;;;49.90;22.52;;;;;;;0.46;100.00;97183.34;4995674;28;20140;-83
2021/12/07 00:08:01;;;;;;;52.20;23.33;;;;;;;0.50;100.00;97184.41;4978627;28;20490;-83
2021/12/07 00:10:28;;;;;;;48.60;21.63;;;;;;;0.61;100.00;97183.38;4980727;28;20050;-81
2021/12/07 00:12:56;;;;;;;50.08;23.83;;;;;;;0.37;100.00;97181.41;4977458;28;20194;-82
2021/12/07 00:15:24;;;;;;;46.58;22.00;;;;;;;0.50;100.00;97180.94;4995580;28;20093;-81
2021/12/07 00:17:52;;;;;;;51.53;23.92;;;;;;;0.56;100.00;97166.56;4978125;28;20078;-82
2021/12/07 00:20:20;;;;;;;52.22;22.50;;;;;;;0.68;100.00;97180.44;4977761;28;20054;-82
2021/12/07 00:22:50;;;;;;;49.85;21.83;;;;;;;0.68;100.00;97184.97;4977831;28;20054;-82
2021/12/07 00:25:17;;;;;;;48.70;22.30;;;;;;;0.57;100.00;97168.16;4978087;28;20050;-82
2021/12/07 00:27:44;;;;;;;46.47;22.73;;;;;;;0.60;100.00;97179.09;4978114;28;20193;-82
2021/12/07 00:30:12;;;;;;;52.35;23.38;;;;;;;0.51;100.00;97177.22;4978727;28;20459;-81
2021/12/07 00:32:44;;;;;;;48.38;22.33;;;;;;;0.59;100.00;97179.38;4979300;28;20046;-81
2021/12/07 00:37:45;;;;;;;43.15;20.58;;;;;;;0.75;100.00;97178.31;4995448;28;20074;-82
2021/12/07 00:40:14;;;;;;;43.33;20.42;;;;;;;0.72;100.00;97180.75;4977693;28;20101;-82
2021/12/07 00:42:41;;;;;;;41.03;19.48;;;;;;;0.65;100.00;97164.22;4993626;28;20093;-81
2021/12/07 00:45:09;;;;;;;43.33;19.55;;;;;;;0.74;100.00;97162.63;4995858;28;20057;-82
2021/12/07 00:47:36;;;;;;;44.63;20.77;;;;;;;0.58;100.00;97145.81;4995098;28;20105;-82
2021/12/07 00:50:04;;;;;;;39.40;18.55;;;;;;;0.37;100.00;97138.81;4977345;28;20494;-82
2021/12/07 00:52:30;;;;;;;34.88;17.50;;;;;;;0.48;100.00;97137.78;4976530;28;20046;-80
2021/12/07 00:54:57;;;;;;;37.42;18.45;;;;;;;0.49;100.00;97129.53;4977456;28;20050;-82
2021/12/07 00:57:25;;;;;;;40.63;18.25;;;;;;;0.29;100.00;97131.34;4994483;28;20054;-81
2021/12/07 00:59:52;;;;;;;37.25;18.15;;;;;;;0.25;100.00;97130.28;4993304;28;20058;-81
2021/12/07 01:02:19;;;;;;;38.10;18.45;;;;;;;0.22;100.00;97133.47;4977399;28;20042;-82
2021/12/07 01:04:52;;;;;;;39.97;18.45;;;;;;;0.12;100.00;97130.75;4987338;28;20058;-80
2021/12/07 01:08:15;;;;;;;40.25;18.13;;;;;;;0.11;100.00;97129.94;4996122;28;20498;-82
2021/12/07 01:26:40;;;;;;;36.13;17.33;;;;;;;-0.12;100.00;97114.44;4975614;28;20055;-81
2021/12/07 01:29:06;;;;;;;39.22;18.23;;;;;;;-0.24;100.00;97117.31;4958150;28;20348;-82
2021/12/07 01:31:47;;;;;;;38.53;17.30;;;;;;;-0.26;100.00;97113.31;4958868;28;20318;-82
2021/12/07 01:47:54;;;;;;;37.03;16.67;;;;;;;-0.40;100.00;97106.84;4976323;28;20074;-82
2021/12/07 01:51:01;;;;;;;39.63;16.73;;;;;;;-0.37;100.00;97099.16;4956811;28;20046;-82
2021/12/07 02:01:44;;;;;;;35.85;15.85;;;;;;;-0.35;100.00;97089.06;4973912;28;20046;-82
2021/12/07 02:04:11;;;;;;;36.22;17.05;;;;;;;-0.32;100.00;97095.72;4974480;28;20055;-82
2021/12/07 02:06:37;;;;;;;36.88;16.35;;;;;;;-0.33;100.00;97088.78;4974266;28;20043;-80
2021/12/07 02:09:07;;;;;;;35.72;16.80;;;;;;;-0.56;100.00;97092.66;4956057;28;20110;-83
2021/12/07 02:11:34;;;;;;;37.10;16.55;;;;;;;-0.47;100.00;97088.47;4956576;28;20086;-83
2021/12/07 02:14:15;;;;;;;36.67;16.77;;;;;;;-0.49;100.00;97087.13;4973820;28;20051;-83
2021/12/07 02:16:47;;;;;;;36.70;17.40;;;;;;;-0.48;100.00;97084.22;4959663;28;20061;-83
2021/12/07 02:19:14;;;;;;;37.95;17.17;;;;;;;-0.48;100.00;97094.03;4957193;28;20077;-82
2021/12/07 02:21:42;;;;;;;38.65;17.67;;;;;;;-0.42;100.00;97095.66;4974903;28;20047;-82
2021/12/07 02:24:09;;;;;;;37.22;17.60;;;;;;;-0.47;100.00;97085.00;4974840;28;20050;-82
2021/12/07 02:26:36;;;;;;;34.72;16.13;;;;;;;-0.56;100.00;97076.72;4958688;28;20751;-82
2021/12/07 02:29:04;;;;;;;34.33;15.73;;;;;;;-0.58;100.00;97081.50;4960149;28;20055;-83
2021/12/07 02:31:33;;;;;;;37.92;16.17;;;;;;;-0.52;100.00;97072.50;4960438;28;20700;-83
2021/12/07 02:34:01;;;;;;;33.53;15.88;;;;;;;-0.52;100.00;97069.03;4958299;28;20054;-83
2021/12/07 02:36:28;;;;;;;33.58;16.83;;;;;;;-0.52;100.00;97069.84;4974973;28;20141;-84
2021/12/07 02:38:55;;;;;;;33.47;16.08;;;;;;;-0.48;100.00;97072.78;4957167;28;20624;-82
2021/12/07 02:41:22;;;;;;;38.22;16.73;;;;;;;-0.50;100.00;97065.06;4974217;28;20063;-82
2021/12/07 02:43:49;;;;;;;36.85;15.98;;;;;;;-0.47;100.00;97067.22;4957234;28;20050;-83
2021/12/07 02:46:16;;;;;;;35.65;16.75;;;;;;;-0.47;100.00;97074.38;4957975;28;20113;-83
2021/12/07 02:48:43;;;;;;;39.42;16.50;;;;;;;-0.56;100.00;97066.09;4956697;28;20050;-83
2021/12/07 02:51:10;;;;;;;38.53;16.90;;;;;;;-0.57;100.00;97069.81;4957417;28;20519;-83
2021/12/07 02:53:37;;;;;;;37.20;16.95;;;;;;;-0.69;100.00;97067.34;4964702;28;20062;-83
2021/12/07 02:56:06;;;;;;;37.92;17.33;;;;;;;-0.78;100.00;97062.78;4966391;28;20054;-83
2021/12/07 02:58:33;;;;;;;44.33;18.20;;;;;;;-0.80;100.00;97072.88;4961115;28;20047;-82
2021/12/07 03:01:13;;;;;;;37.20;17.80;;;;;;;-0.79;100.00;97066.47;4959664;28;20096;-84
2021/12/07 03:03:51;;;;;;;41.20;18.65;;;;;;;-0.77;100.00;97070.47;4958161;28;20047;-83
2021/12/07 03:07:36;;;;;;;39.60;17.73;;;;;;;-0.84;100.00;97069.91;4977952;28;20066;-81
2021/12/07 03:26:54;;;;;;;44.83;18.73;;;;;;;-1.19;100.00;97050.28;4979258;28;20059;-80
2021/12/07 03:29:21;;;;;;;42.80;18.23;;;;;;;-1.11;100.00;97042.63;4977478;28;20101;-82
2021/12/07 03:31:47;;;;;;;41.67;17.88;;;;;;;-1.07;100.00;97034.94;4977486;28;20047;-80
2021/12/07 03:34:14;;;;;;;41.95;18.27;;;;;;;-1.07;100.00;97027.78;4977833;28;20054;-81
2021/12/07 03:36:41;;;;;;;40.20;17.73;;;;;;;-1.01;100.00;97032.09;4978529;28;20054;-82
2021/12/07 03:39:07;;;;;;;36.20;16.70;;;;;;;-0.97;100.00;97019.09;4960649;28;20117;-81
2021/12/07 03:41:34;;;;;;;35.63;15.45;;;;;;;-0.91;100.00;97020.72;4960851;28;20054;-80
2021/12/07 03:44:01;;;;;;;32.70;14.80;;;;;;;-0.76;100.00;97029.59;4959898;28;20513;-81
2021/12/07 03:46:27;;;;;;;31.40;14.88;;;;;;;-0.69;100.00;97024.81;4964232;28;20093;-81
2021/12/07 03:48:54;;;;;;;36.33;16.05;;;;;;;-0.60;100.00;97014.50;4971368;28;20498;-80
2021/12/07 03:51:21;;;;;;;31.40;14.45;;;;;;;-0.68;100.00;97020.31;4987905;28;20422;-81
2021/12/07 03:53:48;;;;;;;33.38;15.10;;;;;;;-0.78;100.00;97022.94;4977815;28;20609;-82
2021/12/07 03:56:15;;;;;;;34.97;14.57;;;;;;;-0.79;100.00;97026.63;4979286;28;20058;-82
2021/12/07 03:58:42;;;;;;;34.30;15.90;;;;;;;-0.81;100.00;97029.56;4961137;28;20134;-81
2021/12/07 04:01:11;;;;;;;35.58;15.98;;;;;;;-0.83;100.00;97020.25;4963290;28;20110;-82
2021/12/07 04:03:39;;;;;;;35.30;15.30;;;;;;;-0.82;100.00;97027.94;4960366;28;20046;-80
2021/12/07 04:06:07;;;;;;;34.25;16.05;;;;;;;-0.84;100.00;97037.22;4977888;28;20074;-81
2021/12/07 04:08:41;;;;;;;33.35;15.30;;;;;;;-0.91;100.00;97029.50;4976357;28;20153;-80
2021/12/07 04:11:07;;;;;;;35.20;16.17;;;;;;;-0.98;100.00;97033.44;4959764;28;20141;-81
2021/12/07 04:13:35;;;;;;;35.03;16.38;;;;;;;-0.92;100.00;97030.53;4976734;28;20113;-80
2021/12/07 04:16:05;;;;;;;38.25;17.70;;;;;;;-1.00;100.00;97035.53;4961688;28;20051;-82
2021/12/07 04:18:31;;;;;;;38.50;17.42;;;;;;;-1.00;100.00;97033.69;4977606;28;20058;-81
2021/12/07 04:21:01;;;;;;;39.55;17.63;;;;;;;-1.10;100.00;97036.25;4959948;28;20118;-81
2021/12/07 04:23:31;;;;;;;44.83;18.13;;;;;;;-1.14;100.00;97055.63;4977370;28;20578;-81
2021/12/07 04:26:00;;;;;;;43.83;18.27;;;;;;;-1.18;100.00;97042.03;4976496;28;20051;-83
2021/12/07 04:28:26;;;;;;;43.13;18.48;;;;;;;-1.20;100.00;97030.06;4975761;28;20051;-81
2021/12/07 04:30:53;;;;;;;45.45;18.85;;;;;;;-1.18;100.00;97038.59;4959684;28;20097;-82
2021/12/07 04:33:20;;;;;;;49.55;19.92;;;;;;;-1.20;100.00;97024.78;4960645;28;20046;-82
2021/12/07 04:35:49;;;;;;;47.90;20.75;;;;;;;-1.13;100.00;97023.50;4977074;28;20053;-80
2021/12/07 04:38:17;;;;;;;48.22;20.52;;;;;;;-1.11;100.00;97025.91;4976462;28;20054;-82
2021/12/07 04:40:44;;;;;;;47.10;20.20;;;;;;;-1.08;100.00;97020.88;4976601;28;20058;-79
2021/12/07 04:43:11;;;;;;;50.08;20.63;;;;;;;-1.07;100.00;97019.03;4958555;28;20137;-82
2021/12/07 04:59:04;;;;;;;51.38;20.98;;;;;;;-0.90;100.00;97017.00;4976835;28;20585;-82
2021/12/07 05:01:33;;;;;;;47.28;19.73;;;;;;;-1.03;100.00;97006.84;4960929;28;20062;-82
2021/12/07 05:04:06;;;;;;;45.75;20.42;;;;;;;-0.90;100.00;97009.81;4987180;28;20090;-83
2021/12/07 05:06:35;;;;;;;47.95;20.20;;;;;;;-0.94;100.00;97021.22;4960298;28;20064;-83
2021/12/07 05:09:22;;;;;;;46.45;20.55;;;;;;;-0.87;100.00;97019.94;4958967;28;20051;-83
2021/12/07 05:14:27;;;;;;;48.28;19.80;;;;;;;-0.85;100.00;97015.16;4976323;28;20074;-82
2021/12/07 05:38:34;;;;;;;46.80;20.40;;;;;;;-0.62;100.00;97008.66;4975240;28;20050;-83
2021/12/07 05:41:01;;;;;;;44.92;20.17;;;;;;;-0.62;100.00;97008.66;4975933;28;20089;-83
2021/12/07 05:43:30;;;;;;;45.83;20.63;;;;;;;-0.62;100.00;96998.81;4957715;28;20046;-82
2021/12/07 05:45:57;;;;;;;46.35;20.02;;;;;;;-0.58;100.00;96998.28;4976105;28;20427;-83
2021/12/07 05:48:24;;;;;;;48.03;20.98;;;;;;;-0.67;100.00;97001.44;4976344;28;20542;-83
2021/12/07 05:50:50;;;;;;;44.90;21.13;;;;;;;-0.65;100.00;96994.03;4978140;28;20058;-81
2021/12/07 05:53:17;;;;;;;50.15;21.17;;;;;;;-0.64;100.00;97003.59;4977237;28;20057;-81
2021/12/07 05:55:58;;;;;;;49.72;21.67;;;;;;;-0.65;100.00;97002.00;4964348;28;20081;-83
2021/12/07 05:58:24;;;;;;;50.08;21.70;;;;;;;-0.69;100.00;97002.75;4987237;28;20051;-82
2021/12/07 06:00:57;;;;;;;46.63;20.60;;;;;;;-0.60;100.00;97003.88;5030671;28;20049;-83
2021/12/07 06:03:25;;;;;;;47.42;20.63;;;;;;;-0.62;100.00;97004.13;5015497;28;20109;-82
2021/12/07 06:05:53;;;;;;;48.47;21.13;;;;;;;-0.58;100.00;97008.94;5021733;28;20069;-82
2021/12/07 06:08:21;;;;;;;51.20;20.75;;;;;;;-0.51;100.00;97020.13;5016607;28;20078;-83
2021/12/07 06:10:48;;;;;;;45.60;20.80;;;;;;;-0.70;100.00;96993.97;5018425;28;20058;-80
2021/12/07 06:13:20;;;;;;;45.03;20.98;;;;;;;-0.62;100.00;97006.00;5016273;28;20050;-82
2021/12/07 06:15:48;;;;;;;46.90;21.40;;;;;;;-0.59;100.00;97016.09;4999722;28;20060;-82
2021/12/07 06:18:15;;;;;;;46.35;20.58;;;;;;;-0.56;100.00;97012.94;4999995;28;20144;-80
2021/12/07 06:20:42;;;;;;;47.08;20.65;;;;;;;-0.47;100.00;97027.34;4998586;28;20058;-83
2021/12/07 06:23:17;;;;;;;52.67;21.92;;;;;;;-0.44;100.00;97028.69;5001493;28;20125;-81
2021/12/07 06:25:45;;;;;;;47.10;20.90;;;;;;;-0.48;100.00;97020.41;4974270;28;20053;-82
2021/12/07 06:28:13;;;;;;;47.33;20.67;;;;;;;-0.49;100.00;97016.13;4989753;28;20050;-82
2021/12/07 06:30:42;;;;;;;48.20;20.33;;;;;;;-0.40;100.00;97019.09;5004533;23;20209;-80
2021/12/07 06:33:15;;;;;;;44.08;20.08;;;;;;;-0.35;100.00;97017.28;5012461;28;20057;-81
2021/12/07 06:35:42;;;;;;;43.38;20.25;;;;;;;-0.40;100.00;97017.25;5011128;28;20061;-81
2021/12/07 06:38:09;;;;;;;45.25;19.95;;;;;;;-0.29;100.00;97018.09;5014221;28;20053;-81
2021/12/07 06:40:36;;;;;;;45.45;20.42;;;;;;;-0.31;100.00;97007.69;5034468;28;20100;-82
2021/12/07 06:43:05;;;;;;;48.17;20.55;;;;;;;-0.25;100.00;97006.66;5034132;28;20113;-82
2021/12/07 06:45:32;;;;;;;46.80;21.15;;;;;;;-0.15;100.00;97013.88;5015317;28;20099;-82
2021/12/07 06:47:59;;;;;;;41.20;19.40;;;;;;;-0.12;100.00;97016.00;5033268;28;20146;-82
2021/12/07 06:50:27;;;;;;;44.00;19.80;;;;;;;-0.11;100.00;97014.97;5031754;28;20053;-83
2021/12/07 06:52:55;;;;;;;51.38;21.05;;;;;;;-0.08;100.00;97009.91;5024500;28;20073;-83
2021/12/07 06:55:22;;;;;;;39.38;18.00;;;;;;;-0.08;100.00;96998.50;5033389;28;20053;-82
2021/12/07 06:57:49;;;;;;;44.88;19.13;;;;;;;-0.01;100.00;97005.16;5031940;28;20405;-81
2021/12/07 07:00:18;;;;;;;46.97;21.23;;;;;;;0.05;100.00;97011.28;5028480;28;20472;-78
2021/12/07 07:02:45;;;;;;;44.88;20.50;;;;;;;0.09;100.00;97004.38;5034325;28;20080;-79
2021/12/07 07:05:12;;;;;;;51.42;20.98;;;;;;;0.22;100.00;97013.69;5033986;28;20053;-83
2021/12/07 07:07:41;;;;;;;49.30;21.45;;;;;;;0.22;100.00;97003.84;5049293;28;20118;-80
2021/12/07 07:10:11;;;;;;;47.70;21.33;;;;;;;0.23;100.00;97012.66;5058055;28;20048;-79
2021/12/07 07:12:39;;;;;;;49.67;22.10;;;;;;;0.30;100.00;97021.97;5048402;28;20168;-81
2021/12/07 07:15:07;;;;;;;49.08;21.52;;;;;;;0.31;100.00;97014.78;5034111;28;20053;-82
2021/12/07 07:17:34;;;;;;;44.75;20.33;;;;;;;0.39;100.00;97017.72;5051211;28;20071;-82
2021/12/07 07:20:02;;;;;;;41.95;19.65;;;;;;;0.54;100.00;97016.94;5051868;28;20084;-82
2021/12/07 07:22:28;;;;;;;44.42;19.65;;;;;;;0.51;100.00;97025.44;5053127;28;20076;-81
2021/12/07 07:24:55;;;;;;;45.47;19.58;;;;;;;0.54;100.00;97016.94;5052680;28;20057;-82
2021/12/07 07:27:23;;;;;;;43.90;19.08;;;;;;;0.57;100.00;97025.16;5040205;28;20064;-80
2021/12/07 07:29:53;;;;;;;42.88;19.52;;;;;;;0.61;100.00;97023.59;5018272;28;20053;-81
2021/12/07 07:32:20;;;;;;;47.10;19.27;;;;;;;0.68;100.00;97035.81;5000782;28;20054;-82
2021/12/07 07:34:46;;;;;;;44.60;19.85;;;;;;;0.72;100.00;97037.72;5013504;28;20053;-82
2021/12/07 07:37:13;;;;;;;46.65;20.20;;;;;;;0.88;100.00;97033.94;4996258;28;20449;-83
2021/12/07 07:39:41;;;;;;;41.75;18.98;;;;;;;0.82;100.00;97045.69;5014275;28;20115;-83
2021/12/07 07:42:08;;;;;;;42.15;18.70;;;;;;;0.77;100.00;97040.38;5027805;28;20041;-82
2021/12/07 07:44:35;;;;;;;44.70;20.40;;;;;;;0.91;100.00;97045.94;5033140;28;20591;-81
2021/12/07 07:47:03;;;;;;;42.65;19.15;;;;;;;1.03;100.00;97033.94;5018534;28;20111;-80
2021/12/07 07:49:30;;;;;;;38.38;18.63;;;;;;;1.18;100.00;97041.94;5032630;28;20100;-81
2021/12/07 07:51:56;;;;;;;39.08;19.05;;;;;;;1.16;100.00;97040.59;5033909;28;20053;-80
2021/12/07 07:54:23;;;;;;;39.92;19.38;;;;;;;1.39;100.00;97039.22;5015887;28;20056;-79
2021/12/07 07:56:51;;;;;;;39.20;18.20;;;;;;;1.50;100.00;97044.25;5032289;28;20053;-80
2021/12/07 07:59:22;;;;;;;40.95;19.63;;;;;;;1.45;100.00;97038.13;5010472;28;20232;-81
2021/12/07 08:01:48;;;;;;;39.20;18.58;;;;;;;1.50;100.00;97046.91;5017755;28;20049;-81
2021/12/07 08:04:15;;;;;;;40.63;18.48;;;;;;;1.54;100.00;97036.50;5036757;28;20052;-81
2021/12/07 08:06:42;;;;;;;39.35;17.88;;;;;;;1.45;100.00;97032.78;5036098;28;20132;-80
2021/12/07 08:09:08;;;;;;;34.83;17.10;;;;;;;1.59;100.00;97034.63;5031337;28;20060;-81
2021/12/07 08:11:36;;;;;;;41.63;19.30;;;;;;;1.72;100.00;97044.72;5015875;28;20089;-81
2021/12/07 08:14:02;;;;;;;39.80;18.98;;;;;;;1.77;100.00;97046.56;4998909;28;20049;-80
2021/12/07 08:16:29;;;;;;;34.42;17.55;;;;;;;1.85;100.00;97051.34;5016512;28;20597;-80
2021/12/07 08:18:59;;;;;;;38.03;17.63;;;;;;;1.81;100.00;97048.41;5016814;28;20050;-80
2021/12/07 08:21:25;;;;;;;40.22;18.45;;;;;;;1.91;100.00;97050.22;5027065;28;20134;-81
2021/12/07 08:23:52;;;;;;;39.00;17.45;;;;;;;1.83;100.00;97054.25;5018694;28;20045;-81
2021/12/07 08:26:21;;;;;;;38.72;18.55;;;;;;;1.87;100.00;97057.19;5019218;28;20525;-81
2021/12/07 08:28:50;;;;;;;39.03;18.08;;;;;;;2.00;100.00;97059.28;5034918;28;20046;-81
2021/12/07 08:31:17;;;;;;;37.83;17.95;;;;;;;1.99;100.00;97065.66;5042296;28;20057;-80
2021/12/07 08:33:44;;;;;;;37.30;17.88;;;;;;;2.18;100.00;97053.31;5038337;28;20455;-81
2021/12/07 08:36:11;;;;;;;37.28;16.85;;;;;;;2.18;100.00;97061.31;5020586;28;20049;-80
2021/12/07 08:38:49;;;;;;;38.33;17.52;;;;;;;2.22;100.00;97057.00;5037256;28;20056;-81
2021/12/07 08:41:17;;;;;;;36.25;17.38;;;;;;;2.23;100.00;97053.28;5038474;28;20448;-81
2021/12/07 08:43:49;;;;;;;33.47;17.02;;;;;;;2.46;100.00;97055.28;5040057;28;20057;-80
2021/12/07 08:46:16;;;;;;;35.28;16.83;;;;;;;2.48;100.00;97053.13;5029708;28;20053;-80
2021/12/07 08:48:43;;;;;;;34.95;16.75;;;;;;;2.37;100.00;97058.81;5021993;28;20080;-80
2021/12/07 08:51:11;;;;;;;37.80;17.48;;;;;;;2.58;100.00;97051.47;5039665;28;20045;-80
2021/12/07 08:53:46;;;;;;;34.92;16.55;;;;;;;2.55;100.00;97052.03;5038543;28;20041;-82
2021/12/07 09:01:46;;;;;;;;;;;;;;;2.67;100.00;97057.81;5037432;28;20386;-81
2021/12/07 09:04:17;;;;;;;39.00;16.60;;;;;;;2.75;100.00;97057.22;5036349;28;19936;-81
2021/12/07 09:06:45;;;;;;;32.15;15.18;;;;;;;2.72;100.00;97069.25;5037533;28;20053;-84
2021/12/07 09:09:12;;;;;;;33.85;16.42;;;;;;;2.66;100.00;97081.06;5035593;28;20057;-83
2021/12/07 09:11:40;;;;;;;31.63;16.52;;;;;;;2.83;100.00;97081.47;5035691;28;20107;-82
2021/12/07 09:14:10;;;;;;;34.83;15.73;;;;;;;2.79;100.00;97083.09;5038461;28;20054;-82
2021/12/07 09:16:36;;;;;;;33.33;16.05;;;;;;;2.73;100.00;97070.88;5019484;28;20083;-81
2021/12/07 09:19:04;;;;;;;29.95;14.95;;;;;;;2.53;100.00;97069.13;5036203;28;20057;-80
2021/12/07 09:21:31;;;;;;;30.25;15.32;;;;;;;2.71;100.00;97085.59;5018235;28;20099;-80
2021/12/07 09:23:58;;;;;;;29.42;14.50;;;;;;;2.73;100.00;97086.09;5021127;28;20068;-82
2021/12/07 09:26:25;;;;;;;29.60;14.27;;;;;;;2.89;100.00;97092.94;5021119;28;20068;-81
2021/12/07 09:28:52;;;;;;;30.70;15.25;;;;;;;2.75;100.00;97075.91;5034998;28;20054;-79
2021/12/07 09:31:19;;;;;;;31.70;15.00;;;;;;;2.88;100.00;97094.00;5035935;28;20056;-80
2021/12/07 09:33:46;;;;;;;28.73;14.30;;;;;;;2.95;100.00;97095.28;5034602;28;20046;-82
2021/12/07 09:36:14;;;;;;;28.70;14.63;;;;;;;3.11;100.00;97102.09;5017762;28;20053;-81
2021/12/07 09:38:41;;;;;;;31.05;15.73;;;;;;;3.03;100.00;97088.53;5033717;28;20045;-81
2021/12/07 09:41:09;;;;;;;32.30;16.05;;;;;;;3.09;100.00;97092.78;5033575;28;20049;-82
2021/12/07 09:43:37;;;;;;;31.60;15.40;;;;;;;2.99;100.00;97079.50;5017289;28;20136;-82
2021/12/07 09:46:05;;;;;;;33.70;14.82;;;;;;;2.98;100.00;97078.69;5035909;28;20099;-80
2021/12/07 09:48:33;;;;;;;31.35;15.00;;;;;;;3.03;100.00;97080.50;5036357;28;20062;-80
2021/12/07 09:51:02;;;;;;;36.10;16.15;;;;;;;3.26;100.00;97082.44;5034803;28;20144;-81
2021/12/07 09:53:29;;;;;;;32.25;16.05;;;;;;;3.27;100.00;97088.59;5033299;28;20615;-80
2021/12/07 09:55:59;;;;;;;34.05;16.40;;;;;;;2.99;100.00;97098.97;5034356;28;20057;-80
2021/12/07 09:58:26;;;;;;;32.95;16.17;;;;;;;3.11;100.00;97101.31;5029818;28;20049;-80
2021/12/07 10:00:54;;;;;;;32.05;16.17;;;;;;;3.17;100.00;97090.28;5033779;28;20053;-81
2021/12/07 10:03:23;;;;;;;34.50;17.77;;;;;;;2.92;100.00;97081.66;5035236;28;20045;-80
2021/12/07 10:05:52;;;;;;;33.88;18.50;;;;;;;3.09;100.00;97090.09;5016790;28;20152;-80
2021/12/07 10:08:19;;;;;;;40.13;18.13;;;;;;;3.07;100.00;97090.38;5034667;28;20077;-80
2021/12/07 10:10:54;;;;;;;33.40;17.65;;;;;;;2.90;100.00;97092.66;5031974;28;20502;-80
2021/12/07 10:13:27;;;;;;;37.28;17.90;;;;;;;2.84;100.00;97085.72;5033423;28;20041;-81
2021/12/07 10:15:56;;;;;;;33.88;16.27;;;;;;;2.90;100.00;97097.19;5035660;28;20145;-80
2021/12/07 10:18:27;;;;;;;34.13;17.20;;;;;;;2.91;100.00;97091.59;5034962;28;20103;-81
2021/12/07 10:21:25;;;;;;;43.85;21.27;;;;;;;3.12;100.00;97089.53;5038286;28;20080;-81
2021/12/07 10:23:58;;;;;;;54.97;27.20;;;;;;;3.09;100.00;97085.56;5039829;28;20465;-80
2021/12/07 10:26:33;;;;;;;55.75;26.33;;;;;;;3.25;100.00;97094.25;5017423;28;20057;-81
2021/12/07 10:29:07;;;;;;;56.65;28.58;;;;;;;3.19;100.00;97095.38;5033837;28;20460;-80
2021/12/07 10:31:39;;;;;;;64.68;31.13;;;;;;;3.15;100.00;97097.78;5016215;28;20057;-82
2021/12/07 10:34:29;;;;;;;75.07;34.95;;;;;;;3.32;100.00;97097.38;5036755;28;20053;-81
2021/12/07 10:37:15;;;;;;;54.17;25.15;;;;;;;3.25;100.00;97096.91;5029100;28;20057;-80
2021/12/07 10:39:48;;;;;;;29.55;14.50;;;;;;;3.37;100.00;97086.63;5013641;28;20099;-81
2021/12/07 10:42:29;;;;;;;33.13;15.57;;;;;;;3.37;100.00;97092.00;5016023;28;20053;-81
2021/12/07 10:45:07;;;;;;;32.40;16.08;;;;;;;3.42;100.00;97083.91;5016107;28;20058;-81
2021/12/07 10:47:34;;;;;;;30.70;15.70;;;;;;;3.35;100.00;97094.16;5034011;28;20057;-81
2021/12/07 10:50:09;;;;;;;34.30;15.20;;;;;;;3.30;100.00;97082.69;5033560;28;20124;-81
2021/12/07 10:52:45;;;;;;;30.63;15.25;;;;;;;3.44;100.00;97087.09;5031760;28;20049;-81
2021/12/07 10:55:23;;;;;;;30.73;15.32;;;;;;;3.54;100.00;97087.00;5031977;28;20053;-81
2021/12/07 10:57:59;;;;;;;30.92;15.40;;;;;;;3.12;100.00;97086.88;5032680;28;20053;-80
2021/12/07 11:00:40;;;;;;;30.67;15.32;;;;;;;3.58;100.00;97084.56;5028523;28;20105;-81
2021/12/07 11:03:10;;;;;;;31.70;15.45;;;;;;;3.64;100.00;97084.22;5032937;28;20046;-80
2021/12/07 11:05:46;;;;;;;32.65;15.18;;;;;;;3.61;100.00;97095.47;5013488;28;20054;-80
2021/12/07 11:08:14;;;;;;;30.83;15.25;;;;;;;3.56;100.00;97092.84;5031032;28;20118;-82
2021/12/07 11:10:47;;;;;;;31.88;15.30;;;;;;;3.61;100.00;97092.03;5031536;28;20053;-80
2021/12/07 11:13:34;;;;;;;31.98;15.77;;;;;;;3.64;100.00;97092.25;5031857;28;20087;-80
2021/12/07 11:16:11;;;;;;;28.98;14.32;;;;;;;3.64;100.00;97096.78;5017095;28;20103;-80
2021/12/07 11:18:49;;;;;;;31.02;15.77;;;;;;;3.66;100.00;97089.31;5033124;28;20057;-80
2021/12/07 11:21:19;;;;;;;30.92;15.20;;;;;;;3.71;100.00;97095.41;5033504;28;20163;-80
2021/12/07 11:23:54;;;;;;;35.05;15.48;;;;;;;3.57;100.00;97091.78;5035359;28;20053;-80
2021/12/07 11:31:50;;;;;;;32.83;16.20;;;;;;;3.55;100.00;97077.91;5035462;28;20041;-81
2021/12/07 11:34:41;;;;;;;30.20;15.20;;;;;;;3.69;100.00;97081.47;5017445;28;20045;-81
2021/12/07 11:37:11;;;;;;;28.15;14.50;;;;;;;3.81;100.00;97094.50;5036716;28;20053;-80
2021/12/07 11:39:55;;;;;;;29.65;14.65;;;;;;;3.81;100.00;97086.47;5032900;28;20057;-84
2021/12/07 11:42:29;;;;;;;28.98;15.60;;;;;;;3.83;100.00;97083.47;5032853;28;20632;-81
2021/12/07 11:45:27;;;;;;;26.95;14.25;;;;;;;3.41;100.00;97090.34;5036799;28;20067;-81
2021/12/07 11:48:00;;;;;;;26.33;13.32;;;;;;;3.62;100.00;97094.41;5039037;28;20460;-81
2021/12/07 11:50:48;;;;;;;27.15;13.35;;;;;;;3.66;100.00;97078.59;5032006;28;20080;-82
2021/12/07 11:53:23;;;;;;;29.20;13.35;;;;;;;3.60;100.00;97093.09;5019919;28;20050;-82
2021/12/07 11:55:56;;;;;;;10.73;6.25;;;;;;;3.55;100.00;97080.56;5031823;28;20053;-83
2021/12/07 11:58:24;;;;;;;13.20;7.57;;;;;;;3.66;100.00;97089.31;5029467;28;20091;-83
2021/12/07 12:00:55;;;;;;;11.80;6.30;;;;;;;3.59;100.00;97083.47;5033641;28;20053;-83
2021/12/07 12:03:24;;;;;;;10.25;6.45;;;;;;;3.54;100.00;97092.34;5033292;28;20099;-81
2021/12/07 12:05:55;;;;;;;10.02;5.97;;;;;;;3.64;100.00;97097.59;5034727;28;20065;-82
2021/12/07 12:08:30;;;;;;;10.10;6.07;;;;;;;3.53;100.00;97108.69;5034944;28;20130;-83
2021/12/07 12:11:05;;;;;;;10.85;5.95;;;;;;;3.47;100.00;97110.63;5027677;28;20071;-81
2021/12/07 12:13:50;;;;;;;10.47;6.47;;;;;;;3.19;100.00;97094.56;5043647;28;20494;-79
2021/12/07 12:16:36;;;;;;;12.82;6.55;;;;;;;3.31;100.00;97116.38;5037972;28;20057;-79
2021/12/07 12:19:54;;;;;;;12.15;7.05;;;;;;;3.10;100.00;97115.75;5029392;28;20095;-79
2021/12/07 12:22:32;;;;;;;11.77;6.57;;;;;;;3.11;100.00;97120.03;5036781;28;20041;-80
2021/12/07 12:25:04;;;;;;;12.68;6.97;;;;;;;3.14;100.00;97109.59;5043817;28;20045;-82
2021/12/07 12:27:34;;;;;;;11.88;6.80;;;;;;;3.18;100.00;97107.13;5049777;28;20486;-81
2021/12/07 12:30:16;;;;;;;11.88;7.18;;;;;;;3.26;100.00;97111.06;5035595;28;20059;-82
2021/12/07 12:32:54;;;;;;;12.13;7.03;;;;;;;3.28;100.00;97112.38;5039740;28;20103;-83
2021/12/07 12:35:54;;;;;;;12.70;7.68;;;;;;;3.08;100.00;97131.28;5038875;28;20112;-82
2021/12/07 12:38:25;;;;;;;12.90;7.20;;;;;;;3.21;100.00;97135.19;5036041;28;20065;-82
2021/12/07 12:40:59;;;;;;;12.23;7.43;;;;;;;3.10;100.00;97129.13;5039302;28;20383;-82
2021/12/07 12:44:09;;;;;;;12.60;6.97;;;;;;;3.16;100.00;97122.66;5039357;28;20099;-82
2021/12/07 12:46:37;;;;;;;11.68;7.00;;;;;;;3.18;100.00;97133.88;4959816;28;20058;-80
2021/12/07 12:49:10;;;;;;;16.83;8.27;;;;;;;3.10;100.00;97115.75;5030919;28;20050;-83
2021/12/07 12:51:52;;;;;;;12.82;7.18;;;;;;;3.00;100.00;97127.31;5037069;28;20049;-82
2021/12/07 12:54:20;;;;;;;13.73;7.65;;;;;;;3.01;100.00;97120.91;5038044;28;20467;-83
2021/12/07 12:56:47;;;;;;;15.40;7.55;;;;;;;3.15;100.00;97123.72;5035771;28;20053;-83
2021/12/07 12:59:14;;;;;;;12.93;7.80;;;;;;;3.09;100.00;97135.56;5035835;28;20604;-82
2021/12/07 13:01:43;;;;;;;14.57;8.18;;;;;;;3.04;100.00;97131.06;5019870;28;20050;-83
2021/12/07 13:04:34;;;;;;;13.25;7.38;;;;;;;3.11;100.00;97138.75;5021138;28;20052;-82
2021/12/07 13:09:54;;;;;;;16.02;7.72;;;;;;;3.04;100.00;97143.63;5037828;28;20115;-82
2021/12/07 13:12:37;;;;;;;12.75;7.40;;;;;;;3.04;100.00;97131.06;5038791;28;20084;-82
2021/12/07 13:15:10;;;;;;;13.80;7.68;;;;;;;3.07;100.00;97137.72;5034041;28;20095;-82
2021/12/07 13:17:42;;;;;;;15.27;7.80;;;;;;;3.06;100.00;97138.78;5036936;28;20079;-83
2021/12/07 13:20:20;;;;;;;13.10;7.80;;;;;;;2.95;100.00;97138.06;5021750;28;20064;-82